sensor_id;sensor_type;location;lat;lon;timestamp;P1;durP1;ratioP1;P2;durP2;ratioP2
39300;SDS011;25019;42.626;23.380;2023-03-20T00:01:57;5.90;;;4.30;;
39300;SDS011;25019;42.626;23.380;2023-03-20T00:04:23;8.03;;;4.40;;
39300;SDS011;25019;42.626;23.380;2023-03-20T00:06:50;7.87;;;4.33;;
39300;SDS011;25019;42.626;23.380;2023-03-20T00:09:15;8.47;;;4.73;;
39300;SDS011;25019;42.626;23.380;2023-03-20T00:11:51;6.20;;;4.30;;
39300;SDS011;25019;42.626;23.380;2023-03-20T00:14:20;6.53;;;3.97;;
39300;SDS011;25019;42.626;23.380;2023-03-20T00:16:49;7.03;;;4.47;;
39300;SDS011;25019;42.626;23.380;2023-03-20T00:19:16;7.90;;;4.37;;
39300;SDS011;25019;42.626;23.380;2023-03-20T00:21:48;8.13;;;4.33;;
39300;SDS011;25019;42.626;23.380;2023-03-20T00:24:14;7.30;;;4.87;;
39300;SDS011;25019;42.626;23.380;2023-03-20T00:26:41;9.10;;;4.50;;
39300;SDS011;25019;42.626;23.380;2023-03-20T00:29:11;6.13;;;4.67;;
39300;SDS011;25019;42.626;23.380;2023-03-20T00:31:50;8.00;;;4.70;;
39300;SDS011;25019;42.626;23.380;2023-03-20T00:34:17;7.47;;;4.20;;
39300;SDS011;25019;42.626;23.380;2023-03-20T00:36:46;6.53;;;4.17;;
39300;SDS011;25019;42.626;23.380;2023-03-20T00:39:12;7.40;;;4.17;;
39300;SDS011;25019;42.626;23.380;2023-03-20T00:46:48;5.33;;;3.60;;
39300;SDS011;25019;42.626;23.380;2023-03-20T00:49:18;4.40;;;3.37;;
39300;SDS011;25019;42.626;23.380;2023-03-20T00:51:47;5.67;;;3.63;;
39300;SDS011;25019;42.626;23.380;2023-03-20T00:54:14;5.07;;;3.47;;
39300;SDS011;25019;42.626;23.380;2023-03-20T00:56:42;4.83;;;3.13;;
39300;SDS011;25019;42.626;23.380;2023-03-20T00:59:19;5.47;;;3.23;;
39300;SDS011;25019;42.626;23.380;2023-03-20T01:01:49;5.53;;;3.53;;
39300;SDS011;25019;42.626;23.380;2023-03-20T01:04:16;7.17;;;3.93;;
39300;SDS011;25019;42.626;23.380;2023-03-20T01:06:44;5.30;;;3.53;;
39300;SDS011;25019;42.626;23.380;2023-03-20T01:09:10;7.63;;;4.03;;
39300;SDS011;25019;42.626;23.380;2023-03-20T01:11:36;6.40;;;3.73;;
39300;SDS011;25019;42.626;23.380;2023-03-20T01:14:03;8.23;;;3.90;;
39300;SDS011;25019;42.626;23.380;2023-03-20T01:16:30;4.97;;;3.80;;
39300;SDS011;25019;42.626;23.380;2023-03-20T01:18:56;6.37;;;4.03;;
39300;SDS011;25019;42.626;23.380;2023-03-20T01:21:22;6.13;;;4.13;;
39300;SDS011;25019;42.626;23.380;2023-03-20T01:23:48;5.17;;;4.07;;
39300;SDS011;25019;42.626;23.380;2023-03-20T01:26:21;5.53;;;4.33;;
39300;SDS011;25019;42.626;23.380;2023-03-20T01:28:54;5.53;;;3.80;;
39300;SDS011;25019;42.626;23.380;2023-03-20T01:31:21;7.43;;;4.17;;
39300;SDS011;25019;42.626;23.380;2023-03-20T01:33:46;6.87;;;4.40;;
39300;SDS011;25019;42.626;23.380;2023-03-20T01:36:13;7.63;;;3.87;;
39300;SDS011;25019;42.626;23.380;2023-03-20T01:38:42;10.50;;;4.20;;
39300;SDS011;25019;42.626;23.380;2023-03-20T01:41:12;5.93;;;3.90;;
39300;SDS011;25019;42.626;23.380;2023-03-20T01:43:42;6.10;;;4.10;;
39300;SDS011;25019;42.626;23.380;2023-03-20T01:51:19;6.23;;;4.23;;
39300;SDS011;25019;42.626;23.380;2023-03-20T01:53:50;6.93;;;4.50;;
39300;SDS011;25019;42.626;23.380;2023-03-20T01:56:23;6.57;;;3.77;;
39300;SDS011;25019;42.626;23.380;2023-03-20T01:58:56;5.73;;;4.17;;
39300;SDS011;25019;42.626;23.380;2023-03-20T02:01:26;8.27;;;4.57;;
39300;SDS011;25019;42.626;23.380;2023-03-20T02:03:52;6.93;;;4.97;;
39300;SDS011;25019;42.626;23.380;2023-03-20T02:06:20;6.50;;;4.43;;
39300;SDS011;25019;42.626;23.380;2023-03-20T02:09:06;6.67;;;3.80;;
39300;SDS011;25019;42.626;23.380;2023-03-20T02:11:38;6.97;;;3.87;;
39300;SDS011;25019;42.626;23.380;2023-03-20T02:14:06;5.27;;;3.47;;
39300;SDS011;25019;42.626;23.380;2023-03-20T02:16:47;5.87;;;3.93;;
39300;SDS011;25019;42.626;23.380;2023-03-20T02:19:30;5.67;;;3.90;;
39300;SDS011;25019;42.626;23.380;2023-03-20T02:47:22;6.00;;;4.30;;
39300;SDS011;25019;42.626;23.380;2023-03-20T02:49:55;7.87;;;4.27;;
39300;SDS011;25019;42.626;23.380;2023-03-20T02:58:06;6.00;;;3.90;;
39300;SDS011;25019;42.626;23.380;2023-03-20T03:00:41;6.10;;;4.37;;
39300;SDS011;25019;42.626;23.380;2023-03-20T03:03:25;7.07;;;4.23;;
39300;SDS011;25019;42.626;23.380;2023-03-20T03:05:57;6.97;;;4.60;;
39300;SDS011;25019;42.626;23.380;2023-03-20T03:08:49;6.47;;;3.73;;
39300;SDS011;25019;42.626;23.380;2023-03-20T03:11:19;7.97;;;4.23;;
39300;SDS011;25019;42.626;23.380;2023-03-20T03:13:47;8.83;;;4.70;;
39300;SDS011;25019;42.626;23.380;2023-03-20T03:16:18;7.97;;;4.27;;
39300;SDS011;25019;42.626;23.380;2023-03-20T03:18:49;10.30;;;4.97;;
39300;SDS011;25019;42.626;23.380;2023-03-20T03:21:23;9.53;;;4.60;;
39300;SDS011;25019;42.626;23.380;2023-03-20T03:23:52;9.17;;;4.97;;
39300;SDS011;25019;42.626;23.380;2023-03-20T03:26:20;8.43;;;5.07;;
39300;SDS011;25019;42.626;23.380;2023-03-20T03:28:56;7.07;;;4.47;;
39300;SDS011;25019;42.626;23.380;2023-03-20T03:31:25;7.20;;;4.80;;
39300;SDS011;25019;42.626;23.380;2023-03-20T03:33:54;10.50;;;5.10;;
39300;SDS011;25019;42.626;23.380;2023-03-20T03:44:12;7.67;;;4.43;;
39300;SDS011;25019;42.626;23.380;2023-03-20T03:49:29;7.17;;;4.27;;
39300;SDS011;25019;42.626;23.380;2023-03-20T03:52:06;6.20;;;4.07;;
39300;SDS011;25019;42.626;23.380;2023-03-20T03:54:43;8.20;;;4.40;;
39300;SDS011;25019;42.626;23.380;2023-03-20T03:57:40;6.90;;;4.37;;
39300;SDS011;25019;42.626;23.380;2023-03-20T04:00:18;6.57;;;4.03;;
39300;SDS011;25019;42.626;23.380;2023-03-20T04:02:49;6.77;;;4.57;;
39300;SDS011;25019;42.626;23.380;2023-03-20T04:05:18;7.57;;;4.00;;
39300;SDS011;25019;42.626;23.380;2023-03-20T04:07:45;5.80;;;3.93;;
39300;SDS011;25019;42.626;23.380;2023-03-20T04:10:13;8.40;;;4.13;;
39300;SDS011;25019;42.626;23.380;2023-03-20T04:12:40;7.53;;;4.33;;
39300;SDS011;25019;42.626;23.380;2023-03-20T04:15:09;7.27;;;4.37;;
39300;SDS011;25019;42.626;23.380;2023-03-20T04:17:36;6.17;;;4.20;;
39300;SDS011;25019;42.626;23.380;2023-03-20T04:20:03;7.27;;;4.33;;
39300;SDS011;25019;42.626;23.380;2023-03-20T04:22:30;8.30;;;4.73;;
39300;SDS011;25019;42.626;23.380;2023-03-20T04:25:04;8.10;;;5.20;;
39300;SDS011;25019;42.626;23.380;2023-03-20T04:27:30;8.83;;;5.03;;
39300;SDS011;25019;42.626;23.380;2023-03-20T04:29:57;8.70;;;4.77;;
39300;SDS011;25019;42.626;23.380;2023-03-20T04:32:48;10.67;;;5.23;;
39300;SDS011;25019;42.626;23.380;2023-03-20T04:35:25;9.53;;;5.20;;
39300;SDS011;25019;42.626;23.380;2023-03-20T04:37:56;11.77;;;5.33;;
39300;SDS011;25019;42.626;23.380;2023-03-20T04:40:21;9.73;;;5.27;;
39300;SDS011;25019;42.626;23.380;2023-03-20T04:42:47;7.63;;;4.93;;
39300;SDS011;25019;42.626;23.380;2023-03-20T04:45:13;8.40;;;5.20;;
39300;SDS011;25019;42.626;23.380;2023-03-20T04:47:40;9.23;;;4.53;;
39300;SDS011;25019;42.626;23.380;2023-03-20T04:50:06;6.37;;;4.60;;
39300;SDS011;25019;42.626;23.380;2023-03-20T04:52:35;6.90;;;4.30;;
39300;SDS011;25019;42.626;23.380;2023-03-20T04:55:01;7.77;;;5.03;;
39300;SDS011;25019;42.626;23.380;2023-03-20T04:57:30;8.13;;;4.83;;
39300;SDS011;25019;42.626;23.380;2023-03-20T04:59:57;8.57;;;4.53;;
39300;SDS011;25019;42.626;23.380;2023-03-20T05:02:23;7.67;;;4.33;;
39300;SDS011;25019;42.626;23.380;2023-03-20T05:04:49;7.93;;;4.40;;
39300;SDS011;25019;42.626;23.380;2023-03-20T05:07:18;7.57;;;5.00;;
39300;SDS011;25019;42.626;23.380;2023-03-20T05:09:56;8.27;;;4.60;;
39300;SDS011;25019;42.626;23.380;2023-03-20T05:12:23;6.03;;;3.90;;
39300;SDS011;25019;42.626;23.380;2023-03-20T05:15:20;12.23;;;5.03;;
39300;SDS011;25019;42.626;23.380;2023-03-20T05:18:09;6.17;;;3.83;;
39300;SDS011;25019;42.626;23.380;2023-03-20T05:20:53;6.90;;;4.50;;
39300;SDS011;25019;42.626;23.380;2023-03-20T05:23:47;6.43;;;4.00;;
39300;SDS011;25019;42.626;23.380;2023-03-20T05:26:24;6.93;;;4.27;;
39300;SDS011;25019;42.626;23.380;2023-03-20T05:29:10;6.37;;;4.20;;
39300;SDS011;25019;42.626;23.380;2023-03-20T05:31:55;8.20;;;5.40;;
39300;SDS011;25019;42.626;23.380;2023-03-20T05:34:44;7.27;;;4.10;;
39300;SDS011;25019;42.626;23.380;2023-03-20T05:37:26;7.67;;;4.50;;
39300;SDS011;25019;42.626;23.380;2023-03-20T05:40:25;9.00;;;4.87;;
39300;SDS011;25019;42.626;23.380;2023-03-20T05:43:13;12.03;;;5.07;;
39300;SDS011;25019;42.626;23.380;2023-03-20T05:45:58;10.33;;;5.20;;
39300;SDS011;25019;42.626;23.380;2023-03-20T05:48:24;9.77;;;5.30;;
39300;SDS011;25019;42.626;23.380;2023-03-20T05:51:25;8.83;;;5.37;;
39300;SDS011;25019;42.626;23.380;2023-03-20T05:54:06;7.70;;;5.10;;
39300;SDS011;25019;42.626;23.380;2023-03-20T05:56:37;9.37;;;4.90;;
39300;SDS011;25019;42.626;23.380;2023-03-20T05:59:26;12.30;;;5.33;;
39300;SDS011;25019;42.626;23.380;2023-03-20T06:02:11;11.47;;;5.60;;
39300;SDS011;25019;42.626;23.380;2023-03-20T06:04:40;10.83;;;5.13;;
39300;SDS011;25019;42.626;23.380;2023-03-20T06:07:05;12.30;;;6.23;;
39300;SDS011;25019;42.626;23.380;2023-03-20T06:09:32;10.67;;;6.07;;
39300;SDS011;25019;42.626;23.380;2023-03-20T06:11:59;13.93;;;6.93;;
39300;SDS011;25019;42.626;23.380;2023-03-20T06:14:25;10.80;;;6.70;;
39300;SDS011;25019;42.626;23.380;2023-03-20T06:16:56;11.67;;;7.20;;
39300;SDS011;25019;42.626;23.380;2023-03-20T06:19:22;15.07;;;8.03;;
39300;SDS011;25019;42.626;23.380;2023-03-20T06:21:53;17.57;;;8.83;;
39300;SDS011;25019;42.626;23.380;2023-03-20T06:24:20;17.17;;;9.87;;
39300;SDS011;25019;42.626;23.380;2023-03-20T06:26:46;22.60;;;10.87;;
39300;SDS011;25019;42.626;23.380;2023-03-20T06:29:12;17.33;;;9.80;;
39300;SDS011;25019;42.626;23.380;2023-03-20T06:31:38;20.93;;;11.53;;
39300;SDS011;25019;42.626;23.380;2023-03-20T06:34:08;15.93;;;9.57;;
39300;SDS011;25019;42.626;23.380;2023-03-20T06:36:39;18.40;;;10.13;;
39300;SDS011;25019;42.626;23.380;2023-03-20T06:39:13;16.17;;;10.10;;
39300;SDS011;25019;42.626;23.380;2023-03-20T06:41:39;15.57;;;9.63;;
39300;SDS011;25019;42.626;23.380;2023-03-20T06:44:07;16.53;;;9.30;;
39300;SDS011;25019;42.626;23.380;2023-03-20T06:46:51;23.43;;;10.80;;
39300;SDS011;25019;42.626;23.380;2023-03-20T06:49:17;16.13;;;9.53;;
39300;SDS011;25019;42.626;23.380;2023-03-20T06:51:44;18.00;;;10.13;;
39300;SDS011;25019;42.626;23.380;2023-03-20T06:54:15;18.67;;;10.13;;
39300;SDS011;25019;42.626;23.380;2023-03-20T06:56:40;17.93;;;9.70;;
39300;SDS011;25019;42.626;23.380;2023-03-20T06:59:07;14.70;;;9.77;;
39300;SDS011;25019;42.626;23.380;2023-03-20T07:01:33;17.20;;;10.47;;
39300;SDS011;25019;42.626;23.380;2023-03-20T07:04:00;17.53;;;9.93;;
39300;SDS011;25019;42.626;23.380;2023-03-20T07:06:31;19.33;;;10.37;;
39300;SDS011;25019;42.626;23.380;2023-03-20T07:08:57;22.67;;;9.20;;
39300;SDS011;25019;42.626;23.380;2023-03-20T07:11:23;14.47;;;8.17;;
39300;SDS011;25019;42.626;23.380;2023-03-20T07:13:52;11.43;;;8.43;;
39300;SDS011;25019;42.626;23.380;2023-03-20T07:16:32;18.43;;;9.77;;
39300;SDS011;25019;42.626;23.380;2023-03-20T07:18:58;16.13;;;9.77;;
39300;SDS011;25019;42.626;23.380;2023-03-20T07:21:24;17.90;;;9.77;;
39300;SDS011;25019;42.626;23.380;2023-03-20T07:23:50;17.23;;;9.27;;
39300;SDS011;25019;42.626;23.380;2023-03-20T07:26:17;20.20;;;9.97;;
39300;SDS011;25019;42.626;23.380;2023-03-20T07:28:43;17.97;;;9.20;;
39300;SDS011;25019;42.626;23.380;2023-03-20T07:31:22;17.60;;;9.77;;
39300;SDS011;25019;42.626;23.380;2023-03-20T07:34:08;16.43;;;9.70;;
39300;SDS011;25019;42.626;23.380;2023-03-20T07:36:35;27.57;;;15.60;;
39300;SDS011;25019;42.626;23.380;2023-03-20T07:39:00;20.87;;;14.30;;
39300;SDS011;25019;42.626;23.380;2023-03-20T07:41:28;17.17;;;10.87;;
39300;SDS011;25019;42.626;23.380;2023-03-20T07:44:01;19.13;;;10.10;;
39300;SDS011;25019;42.626;23.380;2023-03-20T07:46:50;23.27;;;14.83;;
39300;SDS011;25019;42.626;23.380;2023-03-20T07:49:16;17.93;;;10.93;;
39300;SDS011;25019;42.626;23.380;2023-03-20T07:51:44;16.27;;;9.67;;
39300;SDS011;25019;42.626;23.380;2023-03-20T07:54:11;21.90;;;14.23;;
39300;SDS011;25019;42.626;23.380;2023-03-20T07:56:37;17.43;;;10.10;;
39300;SDS011;25019;42.626;23.380;2023-03-20T07:59:04;17.07;;;9.33;;
39300;SDS011;25019;42.626;23.380;2023-03-20T08:01:29;17.40;;;10.90;;
39300;SDS011;25019;42.626;23.380;2023-03-20T08:03:55;12.43;;;9.23;;
39300;SDS011;25019;42.626;23.380;2023-03-20T08:06:21;16.63;;;9.43;;
39300;SDS011;25019;42.626;23.380;2023-03-20T08:08:46;21.43;;;12.20;;
39300;SDS011;25019;42.626;23.380;2023-03-20T08:11:16;20.53;;;9.30;;
39300;SDS011;25019;42.626;23.380;2023-03-20T08:13:41;19.20;;;9.83;;
39300;SDS011;25019;42.626;23.380;2023-03-20T08:16:07;17.10;;;9.50;;
39300;SDS011;25019;42.626;23.380;2023-03-20T08:18:33;13.00;;;8.80;;
39300;SDS011;25019;42.626;23.380;2023-03-20T08:20:59;15.40;;;9.30;;
39300;SDS011;25019;42.626;23.380;2023-03-20T08:23:25;15.50;;;8.70;;
39300;SDS011;25019;42.626;23.380;2023-03-20T08:25:51;14.93;;;8.63;;
39300;SDS011;25019;42.626;23.380;2023-03-20T08:28:18;18.97;;;12.87;;
39300;SDS011;25019;42.626;23.380;2023-03-20T08:30:44;13.87;;;9.87;;
39300;SDS011;25019;42.626;23.380;2023-03-20T08:33:11;17.93;;;10.23;;
39300;SDS011;25019;42.626;23.380;2023-03-20T08:35:38;18.27;;;10.47;;
39300;SDS011;25019;42.626;23.380;2023-03-20T08:38:04;19.70;;;11.67;;
39300;SDS011;25019;42.626;23.380;2023-03-20T08:40:30;25.17;;;13.17;;
39300;SDS011;25019;42.626;23.380;2023-03-20T08:42:56;25.53;;;12.97;;
39300;SDS011;25019;42.626;23.380;2023-03-20T08:45:22;19.23;;;13.67;;
39300;SDS011;25019;42.626;23.380;2023-03-20T08:47:50;24.23;;;13.27;;
39300;SDS011;25019;42.626;23.380;2023-03-20T08:50:16;21.97;;;12.50;;
39300;SDS011;25019;42.626;23.380;2023-03-20T08:52:43;20.43;;;12.77;;
39300;SDS011;25019;42.626;23.380;2023-03-20T08:55:09;23.30;;;14.23;;
39300;SDS011;25019;42.626;23.380;2023-03-20T08:57:36;20.30;;;12.43;;
39300;SDS011;25019;42.626;23.380;2023-03-20T09:00:05;23.13;;;15.17;;
39300;SDS011;25019;42.626;23.380;2023-03-20T09:02:32;22.40;;;13.93;;
39300;SDS011;25019;42.626;23.380;2023-03-20T09:04:58;23.40;;;15.97;;
39300;SDS011;25019;42.626;23.380;2023-03-20T09:07:23;20.80;;;14.67;;
39300;SDS011;25019;42.626;23.380;2023-03-20T09:09:49;20.17;;;15.20;;
39300;SDS011;25019;42.626;23.380;2023-03-20T09:12:15;20.93;;;13.07;;
39300;SDS011;25019;42.626;23.380;2023-03-20T09:14:41;22.43;;;13.57;;
39300;SDS011;25019;42.626;23.380;2023-03-20T09:17:07;24.20;;;14.00;;
39300;SDS011;25019;42.626;23.380;2023-03-20T09:19:33;21.70;;;14.27;;
39300;SDS011;25019;42.626;23.380;2023-03-20T09:21:59;23.93;;;16.03;;
39300;SDS011;25019;42.626;23.380;2023-03-20T09:24:25;20.87;;;14.43;;
39300;SDS011;25019;42.626;23.380;2023-03-20T09:26:51;22.10;;;14.57;;
39300;SDS011;25019;42.626;23.380;2023-03-20T09:29:16;26.03;;;15.47;;
39300;SDS011;25019;42.626;23.380;2023-03-20T09:31:42;28.33;;;18.33;;
39300;SDS011;25019;42.626;23.380;2023-03-20T09:34:08;25.37;;;16.17;;
39300;SDS011;25019;42.626;23.380;2023-03-20T09:36:34;27.30;;;17.00;;
39300;SDS011;25019;42.626;23.380;2023-03-20T09:38:59;22.57;;;15.13;;
39300;SDS011;25019;42.626;23.380;2023-03-20T09:41:25;22.57;;;14.27;;
39300;SDS011;25019;42.626;23.380;2023-03-20T09:43:58;23.93;;;13.87;;
39300;SDS011;25019;42.626;23.380;2023-03-20T09:46:56;23.83;;;14.70;;
39300;SDS011;25019;42.626;23.380;2023-03-20T09:49:47;20.77;;;13.63;;
39300;SDS011;25019;42.626;23.380;2023-03-20T09:52:25;26.53;;;16.33;;
39300;SDS011;25019;42.626;23.380;2023-03-20T09:54:58;24.37;;;14.00;;
39300;SDS011;25019;42.626;23.380;2023-03-20T09:57:31;27.03;;;14.10;;
39300;SDS011;25019;42.626;23.380;2023-03-20T10:00:13;20.23;;;13.40;;
39300;SDS011;25019;42.626;23.380;2023-03-20T10:05:28;29.47;;;17.10;;
39300;SDS011;25019;42.626;23.380;2023-03-20T10:08:09;21.77;;;11.73;;
39300;SDS011;25019;42.626;23.380;2023-03-20T10:10:51;15.57;;;9.90;;
39300;SDS011;25019;42.626;23.380;2023-03-20T10:16:13;11.23;;;8.97;;
39300;SDS011;25019;42.626;23.380;2023-03-20T10:21:45;14.07;;;8.23;;
39300;SDS011;25019;42.626;23.380;2023-03-20T10:26:48;10.97;;;7.33;;
39300;SDS011;25019;42.626;23.380;2023-03-20T10:29:22;10.27;;;7.53;;
39300;SDS011;25019;42.626;23.380;2023-03-20T10:32:11;12.00;;;7.53;;
39300;SDS011;25019;42.626;23.380;2023-03-20T10:37:35;16.97;;;9.90;;
39300;SDS011;25019;42.626;23.380;2023-03-20T10:42:51;15.53;;;8.90;;
39300;SDS011;25019;42.626;23.380;2023-03-20T10:51:03;9.60;;;6.00;;
39300;SDS011;25019;42.626;23.380;2023-03-20T10:56:01;14.40;;;7.03;;
39300;SDS011;25019;42.626;23.380;2023-03-20T10:58:31;10.60;;;6.27;;
39300;SDS011;25019;42.626;23.380;2023-03-20T11:01:02;11.03;;;6.37;;
39300;SDS011;25019;42.626;23.380;2023-03-20T11:03:28;9.50;;;6.87;;
39300;SDS011;25019;42.626;23.380;2023-03-20T11:06:18;12.60;;;7.40;;
39300;SDS011;25019;42.626;23.380;2023-03-20T11:08:48;11.60;;;7.40;;
39300;SDS011;25019;42.626;23.380;2023-03-20T11:11:23;12.00;;;7.23;;
39300;SDS011;25019;42.626;23.380;2023-03-20T11:13:52;15.90;;;8.73;;
39300;SDS011;25019;42.626;23.380;2023-03-20T11:16:29;17.53;;;7.70;;
39300;SDS011;25019;42.626;23.380;2023-03-20T11:19:03;13.27;;;8.00;;
39300;SDS011;25019;42.626;23.380;2023-03-20T11:21:31;16.50;;;9.80;;
39300;SDS011;25019;42.626;23.380;2023-03-20T11:23:59;14.23;;;8.23;;
39300;SDS011;25019;42.626;23.380;2023-03-20T11:26:33;13.27;;;8.43;;
39300;SDS011;25019;42.626;23.380;2023-03-20T11:29:01;16.27;;;9.60;;
39300;SDS011;25019;42.626;23.380;2023-03-20T11:31:38;12.83;;;8.13;;
39300;SDS011;25019;42.626;23.380;2023-03-20T11:34:10;14.30;;;8.73;;
39300;SDS011;25019;42.626;23.380;2023-03-20T11:36:36;14.03;;;8.10;;
39300;SDS011;25019;42.626;23.380;2023-03-20T11:39:06;19.50;;;12.50;;
39300;SDS011;25019;42.626;23.380;2023-03-20T11:41:45;18.67;;;10.33;;
39300;SDS011;25019;42.626;23.380;2023-03-20T11:44:28;21.13;;;10.20;;
39300;SDS011;25019;42.626;23.380;2023-03-20T11:49:55;19.77;;;8.63;;
39300;SDS011;25019;42.626;23.380;2023-03-20T11:52:26;15.17;;;7.97;;
39300;SDS011;25019;42.626;23.380;2023-03-20T11:54:57;21.37;;;10.57;;
39300;SDS011;25019;42.626;23.380;2023-03-20T11:57:34;15.80;;;8.27;;
39300;SDS011;25019;42.626;23.380;2023-03-20T12:00:06;12.37;;;7.93;;
39300;SDS011;25019;42.626;23.380;2023-03-20T12:02:47;13.23;;;8.07;;
39300;SDS011;25019;42.626;23.380;2023-03-20T12:05:18;16.77;;;10.20;;
39300;SDS011;25019;42.626;23.380;2023-03-20T12:08:09;14.27;;;9.10;;
39300;SDS011;25019;42.626;23.380;2023-03-20T12:10:41;15.97;;;9.07;;
39300;SDS011;25019;42.626;23.380;2023-03-20T12:13:29;13.17;;;7.83;;
39300;SDS011;25019;42.626;23.380;2023-03-20T12:16:04;12.97;;;7.87;;
39300;SDS011;25019;42.626;23.380;2023-03-20T12:18:45;15.60;;;9.23;;
39300;SDS011;25019;42.626;23.380;2023-03-20T12:21:23;13.70;;;8.50;;
39300;SDS011;25019;42.626;23.380;2023-03-20T12:24:03;12.03;;;7.10;;
39300;SDS011;25019;42.626;23.380;2023-03-20T12:26:36;11.53;;;7.37;;
39300;SDS011;25019;42.626;23.380;2023-03-20T12:31:43;10.23;;;7.00;;
39300;SDS011;25019;42.626;23.380;2023-03-20T12:36:45;14.30;;;7.27;;
39300;SDS011;25019;42.626;23.380;2023-03-20T12:39:14;10.57;;;7.10;;
39300;SDS011;25019;42.626;23.380;2023-03-20T12:49:47;10.83;;;6.27;;
39300;SDS011;25019;42.626;23.380;2023-03-20T12:58:00;10.30;;;6.27;;
39300;SDS011;25019;42.626;23.380;2023-03-20T13:00:35;9.50;;;6.03;;
39300;SDS011;25019;42.626;23.380;2023-03-20T13:05:59;10.50;;;5.17;;
39300;SDS011;25019;42.626;23.380;2023-03-20T13:08:56;9.30;;;5.33;;
39300;SDS011;25019;42.626;23.380;2023-03-20T13:11:43;9.33;;;5.63;;
39300;SDS011;25019;42.626;23.380;2023-03-20T13:22:47;8.20;;;4.97;;
39300;SDS011;25019;42.626;23.380;2023-03-20T13:28:48;9.87;;;4.90;;
39300;SDS011;25019;42.626;23.380;2023-03-20T13:31:26;8.73;;;4.47;;
39300;SDS011;25019;42.626;23.380;2023-03-20T13:39:36;8.30;;;4.47;;
39300;SDS011;25019;42.626;23.380;2023-03-20T13:42:18;8.40;;;4.03;;
39300;SDS011;25019;42.626;23.380;2023-03-20T13:44:47;7.23;;;3.73;;
39300;SDS011;25019;42.626;23.380;2023-03-20T13:47:20;7.40;;;3.17;;
39300;SDS011;25019;42.626;23.380;2023-03-20T13:53:02;7.63;;;3.23;;
39300;SDS011;25019;42.626;23.380;2023-03-20T13:55:39;7.13;;;3.43;;
39300;SDS011;25019;42.626;23.380;2023-03-20T14:03:53;7.03;;;3.20;;
39300;SDS011;25019;42.626;23.380;2023-03-20T14:08:52;5.97;;;3.10;;
39300;SDS011;25019;42.626;23.380;2023-03-20T14:14:07;7.93;;;4.60;;
39300;SDS011;25019;42.626;23.380;2023-03-20T14:16:39;34.90;;;26.23;;
39300;SDS011;25019;42.626;23.380;2023-03-20T14:21:48;5.67;;;2.60;;
39300;SDS011;25019;42.626;23.380;2023-03-20T14:24:17;8.23;;;5.17;;
39300;SDS011;25019;42.626;23.380;2023-03-20T14:26:48;5.73;;;4.07;;
39300;SDS011;25019;42.626;23.380;2023-03-20T14:31:42;5.27;;;2.70;;
39300;SDS011;25019;42.626;23.380;2023-03-20T14:34:20;7.60;;;3.20;;
39300;SDS011;25019;42.626;23.380;2023-03-20T14:53:15;8.10;;;3.23;;
39300;SDS011;25019;42.626;23.380;2023-03-20T14:55:50;3.77;;;2.67;;
39300;SDS011;25019;42.626;23.380;2023-03-20T15:03:49;7.67;;;3.00;;
39300;SDS011;25019;42.626;23.380;2023-03-20T15:06:19;10.03;;;2.90;;
39300;SDS011;25019;42.626;23.380;2023-03-20T15:08:50;7.63;;;2.90;;
39300;SDS011;25019;42.626;23.380;2023-03-20T15:11:19;6.73;;;3.80;;
39300;SDS011;25019;42.626;23.380;2023-03-20T15:13:47;5.30;;;3.27;;
39300;SDS011;25019;42.626;23.380;2023-03-20T15:16:14;7.33;;;3.70;;
39300;SDS011;25019;42.626;23.380;2023-03-20T15:18:42;10.60;;;3.63;;
39300;SDS011;25019;42.626;23.380;2023-03-20T15:21:15;12.90;;;4.30;;
39300;SDS011;25019;42.626;23.380;2023-03-20T15:23:43;8.87;;;4.10;;
39300;SDS011;25019;42.626;23.380;2023-03-20T15:26:12;8.00;;;3.40;;
39300;SDS011;25019;42.626;23.380;2023-03-20T15:28:39;9.43;;;2.90;;
39300;SDS011;25019;42.626;23.380;2023-03-20T15:31:23;5.53;;;2.63;;
39300;SDS011;25019;42.626;23.380;2023-03-20T15:33:55;7.80;;;3.67;;
39300;SDS011;25019;42.626;23.380;2023-03-20T15:36:25;10.83;;;3.73;;
39300;SDS011;25019;42.626;23.380;2023-03-20T15:39:15;9.03;;;3.20;;
39300;SDS011;25019;42.626;23.380;2023-03-20T15:41:45;11.13;;;8.60;;
39300;SDS011;25019;42.626;23.380;2023-03-20T15:44:17;20.47;;;8.40;;
39300;SDS011;25019;42.626;23.380;2023-03-20T15:49:19;11.63;;;4.43;;
39300;SDS011;25019;42.626;23.380;2023-03-20T15:51:45;9.23;;;4.40;;
39300;SDS011;25019;42.626;23.380;2023-03-20T15:54:12;15.47;;;5.40;;
39300;SDS011;25019;42.626;23.380;2023-03-20T15:56:41;10.30;;;5.03;;
39300;SDS011;25019;42.626;23.380;2023-03-20T15:59:13;12.93;;;5.20;;
39300;SDS011;25019;42.626;23.380;2023-03-20T16:01:45;9.33;;;5.10;;
39300;SDS011;25019;42.626;23.380;2023-03-20T16:04:14;12.20;;;5.13;;
39300;SDS011;25019;42.626;23.380;2023-03-20T16:06:44;7.80;;;4.90;;
39300;SDS011;25019;42.626;23.380;2023-03-20T16:09:12;7.70;;;5.20;;
39300;SDS011;25019;42.626;23.380;2023-03-20T16:11:41;13.03;;;5.90;;
39300;SDS011;25019;42.626;23.380;2023-03-20T16:14:40;10.43;;;6.30;;
39300;SDS011;25019;42.626;23.380;2023-03-20T16:17:00;13.50;;;5.93;;
39300;SDS011;25019;42.626;23.380;2023-03-20T16:19:28;14.23;;;6.00;;
39300;SDS011;25019;42.626;23.380;2023-03-20T16:24:21;14.30;;;6.30;;
39300;SDS011;25019;42.626;23.380;2023-03-20T16:26:52;14.40;;;7.53;;
39300;SDS011;25019;42.626;23.380;2023-03-20T16:29:19;18.43;;;8.70;;
39300;SDS011;25019;42.626;23.380;2023-03-20T16:31:49;15.43;;;9.03;;
39300;SDS011;25019;42.626;23.380;2023-03-20T16:34:20;20.00;;;8.10;;
39300;SDS011;25019;42.626;23.380;2023-03-20T16:36:54;11.13;;;5.97;;
39300;SDS011;25019;42.626;23.380;2023-03-20T16:39:22;11.97;;;6.30;;
39300;SDS011;25019;42.626;23.380;2023-03-20T16:41:56;8.77;;;5.90;;
39300;SDS011;25019;42.626;23.380;2023-03-20T16:44:31;10.60;;;6.00;;
39300;SDS011;25019;42.626;23.380;2023-03-20T16:47:01;10.63;;;6.47;;
39300;SDS011;25019;42.626;23.380;2023-03-20T16:52:22;13.17;;;7.03;;
39300;SDS011;25019;42.626;23.380;2023-03-20T16:54:52;17.70;;;7.60;;
39300;SDS011;25019;42.626;23.380;2023-03-20T16:57:21;17.80;;;7.67;;
39300;SDS011;25019;42.626;23.380;2023-03-20T16:59:47;15.93;;;7.33;;
39300;SDS011;25019;42.626;23.380;2023-03-20T17:02:29;15.33;;;7.53;;
39300;SDS011;25019;42.626;23.380;2023-03-20T17:05:00;18.77;;;8.27;;
39300;SDS011;25019;42.626;23.380;2023-03-20T17:07:28;14.83;;;7.10;;
39300;SDS011;25019;42.626;23.380;2023-03-20T17:10:16;13.70;;;6.47;;
39300;SDS011;25019;42.626;23.380;2023-03-20T17:12:43;15.43;;;6.30;;
39300;SDS011;25019;42.626;23.380;2023-03-20T17:15:13;15.23;;;5.80;;
39300;SDS011;25019;42.626;23.380;2023-03-20T17:17:40;9.70;;;6.00;;
39300;SDS011;25019;42.626;23.380;2023-03-20T17:20:06;12.03;;;5.67;;
39300;SDS011;25019;42.626;23.380;2023-03-20T17:22:42;12.00;;;5.73;;
39300;SDS011;25019;42.626;23.380;2023-03-20T17:25:12;10.23;;;6.13;;
39300;SDS011;25019;42.626;23.380;2023-03-20T17:27:38;12.00;;;6.47;;
39300;SDS011;25019;42.626;23.380;2023-03-20T17:30:06;13.47;;;6.50;;
39300;SDS011;25019;42.626;23.380;2023-03-20T17:32:38;12.33;;;6.13;;
39300;SDS011;25019;42.626;23.380;2023-03-20T17:35:04;11.97;;;6.93;;
39300;SDS011;25019;42.626;23.380;2023-03-20T17:37:31;18.17;;;8.13;;
39300;SDS011;25019;42.626;23.380;2023-03-20T17:39:56;16.47;;;8.20;;